sensor_id;sensor_type;location;lat;lon;timestamp;temperature;humidity
20068;DHT22;10194;50.824;7.134;2022-09-11T00:01:15;16.60;99.90
20068;DHT22;10194;50.824;7.134;2022-09-11T00:03:42;16.40;99.90
20068;DHT22;10194;50.824;7.134;2022-09-11T00:06:15;16.40;99.90
20068;DHT22;10194;50.824;7.134;2022-09-11T00:08:43;16.30;99.90
20068;DHT22;10194;50.824;7.134;2022-09-11T00:11:15;16.40;99.90
20068;DHT22;10194;50.824;7.134;2022-09-11T00:13:44;16.40;99.90
20068;DHT22;10194;50.824;7.134;2022-09-11T00:16:20;16.60;99.90
20068;DHT22;10194;50.824;7.134;2022-09-11T00:18:48;16.60;99.90
20068;DHT22;10194;50.824;7.134;2022-09-11T00:21:16;16.60;99.90
20068;DHT22;10194;50.824;7.134;2022-09-11T00:23:42;16.70;99.90
20068;DHT22;10194;50.824;7.134;2022-09-11T00:26:08;16.80;99.90
20068;DHT22;10194;50.824;7.134;2022-09-11T00:28:34;16.80;99.90
20068;DHT22;10194;50.824;7.134;2022-09-11T00:31:12;16.80;99.90
20068;DHT22;10194;50.824;7.134;2022-09-11T00:33:40;16.80;99.90
20068;DHT22;10194;50.824;7.134;2022-09-11T00:36:12;16.80;99.90
20068;DHT22;10194;50.824;7.134;2022-09-11T00:38:40;16.80;99.90
20068;DHT22;10194;50.824;7.134;2022-09-11T00:41:12;16.80;99.90
20068;DHT22;10194;50.824;7.134;2022-09-11T00:43:59;16.90;99.90
20068;DHT22;10194;50.824;7.134;2022-09-11T00:46:35;16.90;99.90
20068;DHT22;10194;50.824;7.134;2022-09-11T00:49:31;16.90;99.90
20068;DHT22;10194;50.824;7.134;2022-09-11T00:52:25;16.90;99.90
20068;DHT22;10194;50.824;7.134;2022-09-11T00:57:37;16.90;99.90
20068;DHT22;10194;50.824;7.134;2022-09-11T01:00:06;17.00;99.90
20068;DHT22;10194;50.824;7.134;2022-09-11T01:02:35;17.00;99.90
20068;DHT22;10194;50.824;7.134;2022-09-11T01:05:02;17.10;99.90
20068;DHT22;10194;50.824;7.134;2022-09-11T01:07:29;17.10;99.90
20068;DHT22;10194;50.824;7.134;2022-09-11T01:09:55;17.00;99.90
20068;DHT22;10194;50.824;7.134;2022-09-11T01:12:35;17.10;99.90
20068;DHT22;10194;50.824;7.134;2022-09-11T01:15:45;17.00;99.90
20068;DHT22;10194;50.824;7.134;2022-09-11T01:18:30;17.00;99.90
20068;DHT22;10194;50.824;7.134;2022-09-11T01:23:59;17.10;99.90
20068;DHT22;10194;50.824;7.134;2022-09-11T01:27:44;17.10;99.90
20068;DHT22;10194;50.824;7.134;2022-09-11T01:30:09;17.10;99.90
20068;DHT22;10194;50.824;7.134;2022-09-11T01:32:59;17.10;99.90
20068;DHT22;10194;50.824;7.134;2022-09-11T01:36:14;17.10;99.90
20068;DHT22;10194;50.824;7.134;2022-09-11T01:38:55;17.00;99.90
20068;DHT22;10194;50.824;7.134;2022-09-11T01:42:06;17.10;99.90
20068;DHT22;10194;50.824;7.134;2022-09-11T01:44:44;17.10;99.90
20068;DHT22;10194;50.824;7.134;2022-09-11T01:47:15;17.10;99.90
20068;DHT22;10194;50.824;7.134;2022-09-11T01:50:01;17.10;99.90
20068;DHT22;10194;50.824;7.134;2022-09-11T01:52:59;17.10;99.90
20068;DHT22;10194;50.824;7.134;2022-09-11T01:55:40;17.10;99.90
20068;DHT22;10194;50.824;7.134;2022-09-11T01:58:27;17.10;99.90
20068;DHT22;10194;50.824;7.134;2022-09-11T02:01:00;17.10;99.90
20068;DHT22;10194;50.824;7.134;2022-09-11T02:03:57;17.00;99.90
20068;DHT22;10194;50.824;7.134;2022-09-11T02:06:31;17.10;99.90
20068;DHT22;10194;50.824;7.134;2022-09-11T02:09:04;17.20;99.90
20068;DHT22;10194;50.824;7.134;2022-09-11T02:11:36;17.10;99.90
20068;DHT22;10194;50.824;7.134;2022-09-11T02:17:09;17.10;99.90
20068;DHT22;10194;50.824;7.134;2022-09-11T02:19:49;17.10;99.90
20068;DHT22;10194;50.824;7.134;2022-09-11T02:22:15;17.10;99.90
20068;DHT22;10194;50.824;7.134;2022-09-11T02:24:41;17.10;99.90
20068;DHT22;10194;50.824;7.134;2022-09-11T02:27:10;17.00;99.90
20068;DHT22;10194;50.824;7.134;2022-09-11T02:29:38;17.00;99.90
20068;DHT22;10194;50.824;7.134;2022-09-11T02:32:05;16.90;99.90
20068;DHT22;10194;50.824;7.134;2022-09-11T02:34:33;17.00;99.90
20068;DHT22;10194;50.824;7.134;2022-09-11T02:43:36;17.00;99.90
20068;DHT22;10194;50.824;7.134;2022-09-11T02:46:55;17.00;99.90
20068;DHT22;10194;50.824;7.134;2022-09-11T02:52:15;17.10;99.90
20068;DHT22;10194;50.824;7.134;2022-09-11T03:00:34;17.00;99.90
20068;DHT22;10194;50.824;7.134;2022-09-11T03:03:00;17.00;99.90
20068;DHT22;10194;50.824;7.134;2022-09-11T03:05:26;17.00;99.90
20068;DHT22;10194;50.824;7.134;2022-09-11T03:07:53;17.00;99.90
20068;DHT22;10194;50.824;7.134;2022-09-11T03:10:19;17.00;99.90
20068;DHT22;10194;50.824;7.134;2022-09-11T03:12:45;17.10;99.90
20068;DHT22;10194;50.824;7.134;2022-09-11T03:15:11;17.00;99.90
20068;DHT22;10194;50.824;7.134;2022-09-11T03:17:36;17.00;99.90
20068;DHT22;10194;50.824;7.134;2022-09-11T03:20:03;17.00;99.90
20068;DHT22;10194;50.824;7.134;2022-09-11T03:22:29;17.00;99.90
20068;DHT22;10194;50.824;7.134;2022-09-11T03:24:55;17.00;99.90
20068;DHT22;10194;50.824;7.134;2022-09-11T03:27:21;17.00;99.90
20068;DHT22;10194;50.824;7.134;2022-09-11T03:29:48;17.00;99.90
20068;DHT22;10194;50.824;7.134;2022-09-11T03:32:14;17.00;99.90
20068;DHT22;10194;50.824;7.134;2022-09-11T03:34:40;17.00;99.90
20068;DHT22;10194;50.824;7.134;2022-09-11T03:37:06;17.00;99.90
20068;DHT22;10194;50.824;7.134;2022-09-11T03:39:32;17.00;99.90
20068;DHT22;10194;50.824;7.134;2022-09-11T03:41:58;16.90;99.90
20068;DHT22;10194;50.824;7.134;2022-09-11T03:44:24;16.90;99.90
20068;DHT22;10194;50.824;7.134;2022-09-11T03:46:50;16.90;99.90
20068;DHT22;10194;50.824;7.134;2022-09-11T03:49:17;16.90;99.90
20068;DHT22;10194;50.824;7.134;2022-09-11T03:51:44;16.90;99.90
20068;DHT22;10194;50.824;7.134;2022-09-11T03:54:12;16.90;99.90
20068;DHT22;10194;50.824;7.134;2022-09-11T03:56:39;16.90;99.90
20068;DHT22;10194;50.824;7.134;2022-09-11T03:59:07;16.90;99.90
20068;DHT22;10194;50.824;7.134;2022-09-11T04:01:33;17.00;99.90
20068;DHT22;10194;50.824;7.134;2022-09-11T04:04:00;16.90;99.90
20068;DHT22;10194;50.824;7.134;2022-09-11T04:06:26;16.80;99.90
20068;DHT22;10194;50.824;7.134;2022-09-11T04:08:52;16.90;99.90
20068;DHT22;10194;50.824;7.134;2022-09-11T04:11:17;16.80;99.90
20068;DHT22;10194;50.824;7.134;2022-09-11T04:13:43;16.80;99.90
20068;DHT22;10194;50.824;7.134;2022-09-11T04:16:12;16.80;99.90
20068;DHT22;10194;50.824;7.134;2022-09-11T04:18:40;16.90;99.90
20068;DHT22;10194;50.824;7.134;2022-09-11T04:21:09;16.90;99.90
20068;DHT22;10194;50.824;7.134;2022-09-11T04:23:37;16.90;99.90
20068;DHT22;10194;50.824;7.134;2022-09-11T04:26:11;16.90;99.90
20068;DHT22;10194;50.824;7.134;2022-09-11T04:28:40;16.90;99.90
20068;DHT22;10194;50.824;7.134;2022-09-11T04:31:06;16.90;99.90
20068;DHT22;10194;50.824;7.134;2022-09-11T04:33:33;16.90;99.90
20068;DHT22;10194;50.824;7.134;2022-09-11T04:36:08;16.90;99.90
20068;DHT22;10194;50.824;7.134;2022-09-11T04:38:37;16.90;99.90
20068;DHT22;10194;50.824;7.134;2022-09-11T04:41:06;16.80;99.90
20068;DHT22;10194;50.824;7.134;2022-09-11T04:43:36;16.90;99.90
20068;DHT22;10194;50.824;7.134;2022-09-11T04:46:11;16.80;99.90
20068;DHT22;10194;50.824;7.134;2022-09-11T04:48:49;16.80;99.90
20068;DHT22;10194;50.824;7.134;2022-09-11T04:51:24;16.80;99.90
20068;DHT22;10194;50.824;7.134;2022-09-11T04:53:53;16.80;99.90
20068;DHT22;10194;50.824;7.134;2022-09-11T04:56:23;16.80;99.90
20068;DHT22;10194;50.824;7.134;2022-09-11T04:58:55;16.80;99.90
20068;DHT22;10194;50.824;7.134;2022-09-11T05:01:24;16.70;99.90
20068;DHT22;10194;50.824;7.134;2022-09-11T05:03:51;16.70;99.90
20068;DHT22;10194;50.824;7.134;2022-09-11T05:06:17;16.70;99.90
20068;DHT22;10194;50.824;7.134;2022-09-11T05:08:44;16.80;99.90
20068;DHT22;10194;50.824;7.134;2022-09-11T05:11:13;16.80;99.90
20068;DHT22;10194;50.824;7.134;2022-09-11T05:13:40;16.70;99.90
20068;DHT22;10194;50.824;7.134;2022-09-11T05:16:10;16.70;99.90
20068;DHT22;10194;50.824;7.134;2022-09-11T05:18:38;16.70;99.90
20068;DHT22;10194;50.824;7.134;2022-09-11T05:21:15;16.70;99.90
20068;DHT22;10194;50.824;7.134;2022-09-11T05:23:46;16.70;99.90
20068;DHT22;10194;50.824;7.134;2022-09-11T05:26:19;16.70;99.90
20068;DHT22;10194;50.824;7.134;2022-09-11T05:28:47;16.70;99.90
20068;DHT22;10194;50.824;7.134;2022-09-11T05:31:17;16.80;99.90
20068;DHT22;10194;50.824;7.134;2022-09-11T05:33:46;16.80;99.90
20068;DHT22;10194;50.824;7.134;2022-09-11T05:36:13;16.80;99.90
20068;DHT22;10194;50.824;7.134;2022-09-11T05:38:40;16.70;99.90
20068;DHT22;10194;50.824;7.134;2022-09-11T05:41:10;16.70;99.90
20068;DHT22;10194;50.824;7.134;2022-09-11T05:43:38;16.70;99.90
20068;DHT22;10194;50.824;7.134;2022-09-11T05:46:05;16.80;99.90
20068;DHT22;10194;50.824;7.134;2022-09-11T05:48:33;16.80;99.90
20068;DHT22;10194;50.824;7.134;2022-09-11T05:51:02;16.80;99.90
20068;DHT22;10194;50.824;7.134;2022-09-11T05:53:31;16.80;99.90
20068;DHT22;10194;50.824;7.134;2022-09-11T05:56:07;16.80;99.90
20068;DHT22;10194;50.824;7.134;2022-09-11T05:58:44;16.80;99.90
20068;DHT22;10194;50.824;7.134;2022-09-11T06:01:15;16.80;99.90
20068;DHT22;10194;50.824;7.134;2022-09-11T06:03:51;16.80;99.90
20068;DHT22;10194;50.824;7.134;2022-09-11T06:06:19;16.80;99.90
20068;DHT22;10194;50.824;7.134;2022-09-11T06:08:47;16.80;99.90
20068;DHT22;10194;50.824;7.134;2022-09-11T06:11:15;16.80;99.90
20068;DHT22;10194;50.824;7.134;2022-09-11T06:13:44;16.80;99.90
20068;DHT22;10194;50.824;7.134;2022-09-11T06:16:14;16.80;99.90
20068;DHT22;10194;50.824;7.134;2022-09-11T06:18:41;16.80;99.90
20068;DHT22;10194;50.824;7.134;2022-09-11T06:21:10;16.80;99.90
20068;DHT22;10194;50.824;7.134;2022-09-11T06:23:36;16.90;99.90
20068;DHT22;10194;50.824;7.134;2022-09-11T06:26:10;16.90;99.90
20068;DHT22;10194;50.824;7.134;2022-09-11T06:28:37;16.90;99.90
20068;DHT22;10194;50.824;7.134;2022-09-11T06:31:05;16.90;99.90
20068;DHT22;10194;50.824;7.134;2022-09-11T06:33:33;16.80;99.90
20068;DHT22;10194;50.824;7.134;2022-09-11T06:36:05;16.80;99.90
20068;DHT22;10194;50.824;7.134;2022-09-11T06:38:32;16.80;99.90
20068;DHT22;10194;50.824;7.134;2022-09-11T06:41:03;16.80;99.90
20068;DHT22;10194;50.824;7.134;2022-09-11T06:43:30;16.80;99.90
20068;DHT22;10194;50.824;7.134;2022-09-11T06:46:23;16.90;99.90
20068;DHT22;10194;50.824;7.134;2022-09-11T06:48:50;17.00;99.90
20068;DHT22;10194;50.824;7.134;2022-09-11T06:51:19;17.00;99.90
20068;DHT22;10194;50.824;7.134;2022-09-11T06:53:46;17.00;99.90
20068;DHT22;10194;50.824;7.134;2022-09-11T06:56:14;17.00;99.90
20068;DHT22;10194;50.824;7.134;2022-09-11T06:58:41;17.10;99.90
20068;DHT22;10194;50.824;7.134;2022-09-11T07:01:15;17.10;99.90
20068;DHT22;10194;50.824;7.134;2022-09-11T07:03:45;17.20;99.90
20068;DHT22;10194;50.824;7.134;2022-09-11T07:06:14;17.20;99.90
20068;DHT22;10194;50.824;7.134;2022-09-11T07:08:49;17.20;99.90
20068;DHT22;10194;50.824;7.134;2022-09-11T07:11:17;17.10;99.90
20068;DHT22;10194;50.824;7.134;2022-09-11T07:13:43;17.10;99.90
20068;DHT22;10194;50.824;7.134;2022-09-11T07:16:09;17.20;99.90
20068;DHT22;10194;50.824;7.134;2022-09-11T07:18:42;17.20;99.90
20068;DHT22;10194;50.824;7.134;2022-09-11T07:21:23;17.10;99.90
20068;DHT22;10194;50.824;7.134;2022-09-11T07:23:52;17.10;99.90
20068;DHT22;10194;50.824;7.134;2022-09-11T07:26:22;17.10;99.90
20068;DHT22;10194;50.824;7.134;2022-09-11T07:28:49;17.10;99.90
20068;DHT22;10194;50.824;7.134;2022-09-11T07:31:19;17.00;99.90
20068;DHT22;10194;50.824;7.134;2022-09-11T07:33:47;17.00;99.90
20068;DHT22;10194;50.824;7.134;2022-09-11T07:36:20;16.80;99.90
20068;DHT22;10194;50.824;7.134;2022-09-11T07:38:53;16.90;99.90
20068;DHT22;10194;50.824;7.134;2022-09-11T07:41:21;17.00;99.90
20068;DHT22;10194;50.824;7.134;2022-09-11T07:43:52;17.10;99.90
20068;DHT22;10194;50.824;7.134;2022-09-11T07:46:19;17.00;99.90
20068;DHT22;10194;50.824;7.134;2022-09-11T07:48:44;17.00;99.90
20068;DHT22;10194;50.824;7.134;2022-09-11T07:51:12;17.00;99.90
20068;DHT22;10194;50.824;7.134;2022-09-11T07:53:50;17.10;99.90
20068;DHT22;10194;50.824;7.134;2022-09-11T07:56:19;17.20;99.90
20068;DHT22;10194;50.824;7.134;2022-09-11T07:58:48;17.20;99.90
20068;DHT22;10194;50.824;7.134;2022-09-11T08:01:16;17.20;99.90
20068;DHT22;10194;50.824;7.134;2022-09-11T08:03:43;17.10;99.90
20068;DHT22;10194;50.824;7.134;2022-09-11T08:06:15;17.10;99.90
20068;DHT22;10194;50.824;7.134;2022-09-11T08:08:42;17.10;99.90
20068;DHT22;10194;50.824;7.134;2022-09-11T08:11:13;17.20;99.90
20068;DHT22;10194;50.824;7.134;2022-09-11T08:13:42;17.20;99.90
20068;DHT22;10194;50.824;7.134;2022-09-11T08:16:08;17.10;99.90
20068;DHT22;10194;50.824;7.134;2022-09-11T08:18:34;17.10;99.90
20068;DHT22;10194;50.824;7.134;2022-09-11T08:21:08;17.30;99.90
20068;DHT22;10194;50.824;7.134;2022-09-11T08:23:36;17.40;99.90
20068;DHT22;10194;50.824;7.134;2022-09-11T08:28:39;17.60;99.90
20068;DHT22;10194;50.824;7.134;2022-09-11T08:31:10;17.90;99.90
20068;DHT22;10194;50.824;7.134;2022-09-11T08:33:37;18.10;99.90
20068;DHT22;10194;50.824;7.134;2022-09-11T08:36:05;18.20;99.90
20068;DHT22;10194;50.824;7.134;2022-09-11T08:38:33;18.50;99.90
20068;DHT22;10194;50.824;7.134;2022-09-11T08:41:16;18.50;99.90
20068;DHT22;10194;50.824;7.134;2022-09-11T08:43:52;18.60;99.90
20068;DHT22;10194;50.824;7.134;2022-09-11T08:46:26;18.70;99.90
20068;DHT22;10194;50.824;7.134;2022-09-11T08:51:49;18.50;99.90
20068;DHT22;10194;50.824;7.134;2022-09-11T08:54:31;18.40;99.90
20068;DHT22;10194;50.824;7.134;2022-09-11T08:57:13;18.40;99.90
20068;DHT22;10194;50.824;7.134;2022-09-11T09:08:45;18.90;99.90
20068;DHT22;10194;50.824;7.134;2022-09-11T09:14:16;18.90;99.90
20068;DHT22;10194;50.824;7.134;2022-09-11T09:16:58;18.80;99.90
20068;DHT22;10194;50.824;7.134;2022-09-11T09:19:56;18.50;99.90
20068;DHT22;10194;50.824;7.134;2022-09-11T09:23:03;18.40;99.90
20068;DHT22;10194;50.824;7.134;2022-09-11T09:25:38;18.40;99.90
20068;DHT22;10194;50.824;7.134;2022-09-11T09:28:30;18.30;99.90
20068;DHT22;10194;50.824;7.134;2022-09-11T09:31:09;18.30;99.90
20068;DHT22;10194;50.824;7.134;2022-09-11T09:36:20;18.60;99.90
20068;DHT22;10194;50.824;7.134;2022-09-11T09:38:51;18.50;99.90
20068;DHT22;10194;50.824;7.134;2022-09-11T09:44:23;18.50;99.90
20068;DHT22;10194;50.824;7.134;2022-09-11T09:47:02;18.50;99.90
20068;DHT22;10194;50.824;7.134;2022-09-11T09:49:31;18.50;99.90
20068;DHT22;10194;50.824;7.134;2022-09-11T09:51:59;18.30;99.90
20068;DHT22;10194;50.824;7.134;2022-09-11T09:54:32;18.50;99.90
20068;DHT22;10194;50.824;7.134;2022-09-11T09:57:06;18.80;99.90
20068;DHT22;10194;50.824;7.134;2022-09-11T09:59:44;18.90;99.90
20068;DHT22;10194;50.824;7.134;2022-09-11T10:02:43;18.80;99.90
20068;DHT22;10194;50.824;7.134;2022-09-11T10:05:32;18.80;99.90
20068;DHT22;10194;50.824;7.134;2022-09-11T10:08:34;18.80;99.90
20068;DHT22;10194;50.824;7.134;2022-09-11T10:13:35;19.30;99.90
20068;DHT22;10194;50.824;7.134;2022-09-11T10:16:04;19.80;99.90
20068;DHT22;10194;50.824;7.134;2022-09-11T10:18:50;20.10;99.90
20068;DHT22;10194;50.824;7.134;2022-09-11T10:21:28;20.20;99.90
20068;DHT22;10194;50.824;7.134;2022-09-11T10:24:02;20.30;99.90
20068;DHT22;10194;50.824;7.134;2022-09-11T10:26:46;20.20;99.90
20068;DHT22;10194;50.824;7.134;2022-09-11T10:29:20;20.20;99.90
20068;DHT22;10194;50.824;7.134;2022-09-11T10:31:58;20.10;99.90
20068;DHT22;10194;50.824;7.134;2022-09-11T10:34:38;19.90;99.90
20068;DHT22;10194;50.824;7.134;2022-09-11T10:37:06;20.30;99.90
20068;DHT22;10194;50.824;7.134;2022-09-11T10:39:46;20.40;99.90
20068;DHT22;10194;50.824;7.134;2022-09-11T10:42:26;20.40;99.90
20068;DHT22;10194;50.824;7.134;2022-09-11T10:44:57;20.50;99.90
20068;DHT22;10194;50.824;7.134;2022-09-11T10:47:35;20.50;99.90
20068;DHT22;10194;50.824;7.134;2022-09-11T10:55:25;20.20;99.90
20068;DHT22;10194;50.824;7.134;2022-09-11T10:57:58;20.20;99.90
20068;DHT22;10194;50.824;7.134;2022-09-11T11:00:30;20.30;99.90
20068;DHT22;10194;50.824;7.134;2022-09-11T11:03:09;20.40;99.90
20068;DHT22;10194;50.824;7.134;2022-09-11T11:11:40;20.30;99.90
20068;DHT22;10194;50.824;7.134;2022-09-11T11:28:44;21.00;99.90
20068;DHT22;10194;50.824;7.134;2022-09-11T11:37:18;21.00;99.90
20068;DHT22;10194;50.824;7.134;2022-09-11T11:40:09;20.90;99.90
20068;DHT22;10194;50.824;7.134;2022-09-11T11:42:42;21.10;99.90
20068;DHT22;10194;50.824;7.134;2022-09-11T11:45:52;21.10;99.90
20068;DHT22;10194;50.824;7.134;2022-09-11T11:48:37;20.70;99.90
20068;DHT22;10194;50.824;7.134;2022-09-11T11:51:13;20.70;99.90
20068;DHT22;10194;50.824;7.134;2022-09-11T11:54:05;20.70;99.90
20068;DHT22;10194;50.824;7.134;2022-09-11T11:56:51;20.60;99.90
20068;DHT22;10194;50.824;7.134;2022-09-11T12:02:23;20.50;99.90
20068;DHT22;10194;50.824;7.134;2022-09-11T12:04:59;20.70;99.90
20068;DHT22;10194;50.824;7.134;2022-09-11T12:07:30;20.70;99.90
20068;DHT22;10194;50.824;7.134;2022-09-11T12:09:59;20.80;99.90
20068;DHT22;10194;50.824;7.134;2022-09-11T12:12:34;20.90;99.90
20068;DHT22;10194;50.824;7.134;2022-09-11T12:15:17;20.70;99.90
20068;DHT22;10194;50.824;7.134;2022-09-11T12:18:01;20.60;99.90
20068;DHT22;10194;50.824;7.134;2022-09-11T12:20:31;20.70;99.90
20068;DHT22;10194;50.824;7.134;2022-09-11T12:22:59;20.90;99.90
20068;DHT22;10194;50.824;7.134;2022-09-11T12:28:23;20.90;99.90
20068;DHT22;10194;50.824;7.134;2022-09-11T12:31:07;21.00;99.90
20068;DHT22;10194;50.824;7.134;2022-09-11T12:36:19;21.10;99.90
20068;DHT22;10194;50.824;7.134;2022-09-11T12:47:37;21.50;99.90
20068;DHT22;10194;50.824;7.134;2022-09-11T12:52:46;21.00;99.90
20068;DHT22;10194;50.824;7.134;2022-09-11T13:00:59;20.90;99.90
20068;DHT22;10194;50.824;7.134;2022-09-11T13:03:28;20.90;99.90
20068;DHT22;10194;50.824;7.134;2022-09-11T13:05:58;20.90;99.90
20068;DHT22;10194;50.824;7.134;2022-09-11T13:08:31;20.90;99.90
20068;DHT22;10194;50.824;7.134;2022-09-11T13:16:59;21.00;99.90
20068;DHT22;10194;50.824;7.134;2022-09-11T13:19:33;21.10;99.90
20068;DHT22;10194;50.824;7.134;2022-09-11T13:22:00;21.20;99.90
20068;DHT22;10194;50.824;7.134;2022-09-11T13:24:32;21.30;99.90
20068;DHT22;10194;50.824;7.134;2022-09-11T13:27:11;21.40;99.90
20068;DHT22;10194;50.824;7.134;2022-09-11T13:29:38;21.30;99.90
20068;DHT22;10194;50.824;7.134;2022-09-11T13:32:13;21.10;99.90
20068;DHT22;10194;50.824;7.134;2022-09-11T13:34:45;21.10;99.90
20068;DHT22;10194;50.824;7.134;2022-09-11T13:37:45;21.20;99.90
20068;DHT22;10194;50.824;7.134;2022-09-11T13:40:27;21.20;99.90
20068;DHT22;10194;50.824;7.134;2022-09-11T13:42:57;21.20;99.90
20068;DHT22;10194;50.824;7.134;2022-09-11T13:45:24;21.20;99.90
20068;DHT22;10194;50.824;7.134;2022-09-11T13:47:52;21.30;99.90
20068;DHT22;10194;50.824;7.134;2022-09-11T13:50:19;21.30;99.90
20068;DHT22;10194;50.824;7.134;2022-09-11T13:52:46;21.40;99.90
20068;DHT22;10194;50.824;7.134;2022-09-11T13:55:24;21.40;99.90
20068;DHT22;10194;50.824;7.134;2022-09-11T13:57:56;21.50;99.90
20068;DHT22;10194;50.824;7.134;2022-09-11T14:00:45;21.40;99.90
20068;DHT22;10194;50.824;7.134;2022-09-11T14:03:21;21.40;99.90
20068;DHT22;10194;50.824;7.134;2022-09-11T14:05:55;21.40;99.90
20068;DHT22;10194;50.824;7.134;2022-09-11T14:11:02;21.40;99.90
20068;DHT22;10194;50.824;7.134;2022-09-11T14:21:40;21.70;99.90
20068;DHT22;10194;50.824;7.134;2022-09-11T14:24:27;21.80;99.90
20068;DHT22;10194;50.824;7.134;2022-09-11T14:26:59;21.70;99.90
20068;DHT22;10194;50.824;7.134;2022-09-11T14:29:32;21.70;99.90
20068;DHT22;10194;50.824;7.134;2022-09-11T14:34:59;21.80;99.90
20068;DHT22;10194;50.824;7.134;2022-09-11T14:37:27;21.80;99.90
20068;DHT22;10194;50.824;7.134;2022-09-11T14:39:57;21.80;99.90
20068;DHT22;10194;50.824;7.134;2022-09-11T14:42:28;21.70;99.90
20068;DHT22;10194;50.824;7.134;2022-09-11T14:44:57;21.60;99.90
20068;DHT22;10194;50.824;7.134;2022-09-11T14:47:25;21.70;99.90
20068;DHT22;10194;50.824;7.134;2022-09-11T14:49:54;21.50;99.90
20068;DHT22;10194;50.824;7.134;2022-09-11T14:52:26;21.50;99.90
20068;DHT22;10194;50.824;7.134;2022-09-11T14:54:54;21.50;99.90
20068;DHT22;10194;50.824;7.134;2022-09-11T14:57:22;21.40;99.90
20068;DHT22;10194;50.824;7.134;2022-09-11T14:59:50;21.30;99.90
20068;DHT22;10194;50.824;7.134;2022-09-11T15:02:22;21.40;99.90
20068;DHT22;10194;50.824;7.134;2022-09-11T15:04:51;21.30;99.90
20068;DHT22;10194;50.824;7.134;2022-09-11T15:07:18;21.30;99.90
20068;DHT22;10194;50.824;7.134;2022-09-11T15:09:45;21.30;99.90
20068;DHT22;10194;50.824;7.134;2022-09-11T15:12:12;21.20;99.90
20068;DHT22;10194;50.824;7.134;2022-09-11T15:14:38;21.30;99.90
20068;DHT22;10194;50.824;7.134;2022-09-11T15:17:10;21.20;99.90
20068;DHT22;10194;50.824;7.134;2022-09-11T15:19:39;21.20;99.90
20068;DHT22;10194;50.824;7.134;2022-09-11T15:22:06;21.20;99.90
20068;DHT22;10194;50.824;7.134;2022-09-11T15:24:33;21.20;99.90
20068;DHT22;10194;50.824;7.134;2022-09-11T15:26:59;21.20;99.90
20068;DHT22;10194;50.824;7.134;2022-09-11T15:29:25;21.30;99.90
20068;DHT22;10194;50.824;7.134;2022-09-11T15:31:52;21.20;99.90
20068;DHT22;10194;50.824;7.134;2022-09-11T15:34:18;21.20;99.90
20068;DHT22;10194;50.824;7.134;2022-09-11T15:36:45;21.20;99.90
20068;DHT22;10194;50.824;7.134;2022-09-11T15:39:12;21.10;99.90
20068;DHT22;10194;50.824;7.134;2022-09-11T15:41:42;21.20;99.90
20068;DHT22;10194;50.824;7.134;2022-09-11T15:44:09;21.20;99.90
20068;DHT22;10194;50.824;7.134;2022-09-11T15:46:36;21.10;99.90
20068;DHT22;10194;50.824;7.134;2022-09-11T15:49:02;21.10;99.90
20068;DHT22;10194;50.824;7.134;2022-09-11T15:51:28;21.10;99.90
20068;DHT22;10194;50.824;7.134;2022-09-11T15:53:58;21.20;99.90
20068;DHT22;10194;50.824;7.134;2022-09-11T15:56:25;21.10;99.90
20068;DHT22;10194;50.824;7.134;2022-09-11T15:58:56;21.20;99.90
20068;DHT22;10194;50.824;7.134;2022-09-11T16:01:25;21.20;99.90
20068;DHT22;10194;50.824;7.134;2022-09-11T16:03:54;21.10;99.90
20068;DHT22;10194;50.824;7.134;2022-09-11T16:06:22;21.00;99.90
20068;DHT22;10194;50.824;7.134;2022-09-11T16:08:50;21.00;99.90
20068;DHT22;10194;50.824;7.134;2022-09-11T16:11:17;21.10;99.90
20068;DHT22;10194;50.824;7.134;2022-09-11T16:13:47;21.10;99.90
20068;DHT22;10194;50.824;7.134;2022-09-11T16:16:14;21.10;99.90
20068;DHT22;10194;50.824;7.134;2022-09-11T16:18:40;21.00;99.90
20068;DHT22;10194;50.824;7.134;2022-09-11T16:21:08;21.00;99.90
20068;DHT22;10194;50.824;7.134;2022-09-11T16:23:35;21.00;99.90
20068;DHT22;10194;50.824;7.134;2022-09-11T16:26:08;21.00;99.90
20068;DHT22;10194;50.824;7.134;2022-09-11T16:28:37;21.00;99.90
20068;DHT22;10194;50.824;7.134;2022-09-11T16:31:05;21.00;99.90
20068;DHT22;10194;50.824;7.134;2022-09-11T16:33:33;21.00;99.90
20068;DHT22;10194;50.824;7.134;2022-09-11T16:36:12;21.00;99.90
20068;DHT22;10194;50.824;7.134;2022-09-11T16:38:40;20.90;99.90
20068;DHT22;10194;50.824;7.134;2022-09-11T16:41:15;20.80;99.90
20068;DHT22;10194;50.824;7.134;2022-09-11T16:43:45;20.80;99.90
20068;DHT22;10194;50.824;7.134;2022-09-11T16:46:15;20.80;99.90
20068;DHT22;10194;50.824;7.134;2022-09-11T16:48:43;20.70;99.90
20068;DHT22;10194;50.824;7.134;2022-09-11T16:51:10;20.70;99.90
20068;DHT22;10194;50.824;7.134;2022-09-11T16:53:37;20.70;99.90
20068;DHT22;10194;50.824;7.134;2022-09-11T16:56:08;20.60;99.90
20068;DHT22;10194;50.824;7.134;2022-09-11T16:58:36;20.60;99.90
20068;DHT22;10194;50.824;7.134;2022-09-11T17:01:07;20.60;99.90
20068;DHT22;10194;50.824;7.134;2022-09-11T17:03:35;20.60;99.90
20068;DHT22;10194;50.824;7.134;2022-09-11T17:06:02;20.50;99.90
20068;DHT22;10194;50.824;7.134;2022-09-11T17:08:31;20.50;99.90
20068;DHT22;10194;50.824;7.134;2022-09-11T17:10:59;20.50;99.90
20068;DHT22;10194;50.824;7.134;2022-09-11T17:13:27;20.40;99.90
20068;DHT22;10194;50.824;7.134;2022-09-11T17:15:59;20.40;99.90
20068;DHT22;10194;50.824;7.134;2022-09-11T17:18:26;20.30;99.90
20068;DHT22;10194;50.824;7.134;2022-09-11T17:20:56;20.20;99.90
20068;DHT22;10194;50.824;7.134;2022-09-11T17:23:23;20.10;99.90
20068;DHT22;10194;50.824;7.134;2022-09-11T17:25:50;19.90;99.90
20068;DHT22;10194;50.824;7.134;2022-09-11T17:28:16;19.80;99.90
20068;DHT22;10194;50.824;7.134;2022-09-11T17:30:44;19.70;99.90
20068;DHT22;10194;50.824;7.134;2022-09-11T17:33:11;19.50;99.90
20068;DHT22;10194;50.824;7.134;2022-09-11T17:35:39;19.50;99.90
20068;DHT22;10194;50.824;7.134;2022-09-11T17:38:05;19.30;99.90
20068;DHT22;10194;50.824;7.134;2022-09-11T17:40:31;19.20;99.90
20068;DHT22;10194;50.824;7.134;2022-09-11T17:42:57;19.20;99.90
20068;DHT22;10194;50.824;7.134;2022-09-11T17:45:23;19.00;99.90
20068;DHT22;10194;50.824;7.134;2022-09-11T17:47:49;18.90;99.90
20068;DHT22;10194;50.824;7.134;2022-09-11T17:50:15;18.80;99.90
20068;DHT22;10194;50.824;7.134;2022-09-11T17:52:41;18.70;99.90
20068;DHT22;10194;50.824;7.134;2022-09-11T17:55:07;18.60;99.90
20068;DHT22;10194;50.824;7.134;2022-09-11T17:57:35;18.50;99.90
20068;DHT22;10194;50.824;7.134;2022-09-11T18:00:02;18.40;99.90
20068;DHT22;10194;50.824;7.134;2022-09-11T18:02:31;18.30;99.90
20068;DHT22;10194;50.824;7.134;2022-09-11T18:04:57;18.30;99.90
20068;DHT22;10194;50.824;7.134;2022-09-11T18:07:23;18.20;99.90